sensor_id;sensor_type;location;lat;lon;timestamp;pressure;altitude;pressure_sealevel;temperature;humidity
61682;BME280;47577;43.610;25.010;2023-07-22T00:01:22;100248.63;;;27.03;53.42
61682;BME280;47577;43.610;25.010;2023-07-22T00:03:48;100205.44;;;26.90;55.08
61682;BME280;47577;43.610;25.010;2023-07-22T00:06:13;100182.97;;;26.96;55.06
61682;BME280;47577;43.610;25.010;2023-07-22T00:08:39;100238.38;;;26.70;56.20
61682;BME280;47577;43.610;25.010;2023-07-22T00:11:05;100214.94;;;26.59;57.50
61682;BME280;47577;43.610;25.010;2023-07-22T00:13:30;100190.41;;;26.59;58.32
61682;BME280;47577;43.610;25.010;2023-07-22T00:15:56;100245.19;;;25.76;61.16
61682;BME280;47577;43.610;25.010;2023-07-22T00:18:22;100207.31;;;25.83;61.66
61682;BME280;47577;43.610;25.010;2023-07-22T00:20:48;100207.25;;;25.75;62.38
61682;BME280;47577;43.610;25.010;2023-07-22T00:23:13;100195.00;;;25.61;62.36
61682;BME280;47577;43.610;25.010;2023-07-22T00:25:40;100210.41;;;25.70;63.02
61682;BME280;47577;43.610;25.010;2023-07-22T00:28:06;100193.31;;;25.60;63.25
61682;BME280;47577;43.610;25.010;2023-07-22T00:30:31;100194.44;;;25.39;63.89
61682;BME280;47577;43.610;25.010;2023-07-22T00:32:57;100180.44;;;25.34;64.13
61682;BME280;47577;43.610;25.010;2023-07-22T00:35:23;100167.53;;;25.36;64.07
61682;BME280;47577;43.610;25.010;2023-07-22T00:37:48;100148.94;;;25.31;64.57
61682;BME280;47577;43.610;25.010;2023-07-22T00:40:14;100141.13;;;25.18;65.39
61682;BME280;47577;43.610;25.010;2023-07-22T00:42:39;100139.44;;;25.17;65.10
61682;BME280;47577;43.610;25.010;2023-07-22T00:45:05;100154.63;;;25.10;65.32
61682;BME280;47577;43.610;25.010;2023-07-22T00:47:31;100181.53;;;25.13;65.49
61682;BME280;47577;43.610;25.010;2023-07-22T00:49:57;100194.19;;;25.05;66.43
61682;BME280;47577;43.610;25.010;2023-07-22T00:52:23;100208.63;;;25.05;65.36
61682;BME280;47577;43.610;25.010;2023-07-22T00:54:49;100200.19;;;25.08;65.49
61682;BME280;47577;43.610;25.010;2023-07-22T00:57:14;100186.03;;;25.05;66.79
61682;BME280;47577;43.610;25.010;2023-07-22T00:59:40;100190.28;;;25.07;65.94
61682;BME280;47577;43.610;25.010;2023-07-22T01:02:06;100184.06;;;24.97;66.48
61682;BME280;47577;43.610;25.010;2023-07-22T01:04:32;100179.16;;;25.00;66.16
61682;BME280;47577;43.610;25.010;2023-07-22T01:06:58;100179.88;;;25.03;65.53
61682;BME280;47577;43.610;25.010;2023-07-22T01:09:24;100182.81;;;24.91;66.97
61682;BME280;47577;43.610;25.010;2023-07-22T01:11:49;100179.06;;;24.92;66.27
61682;BME280;47577;43.610;25.010;2023-07-22T01:14:15;100165.47;;;24.92;66.77
61682;BME280;47577;43.610;25.010;2023-07-22T01:16:40;100159.22;;;24.82;67.64
61682;BME280;47577;43.610;25.010;2023-07-22T01:19:08;100160.66;;;24.76;67.57
61682;BME280;47577;43.610;25.010;2023-07-22T01:21:34;100157.28;;;24.64;67.55
61682;BME280;47577;43.610;25.010;2023-07-22T01:24:00;100154.88;;;24.52;67.93
61682;BME280;47577;43.610;25.010;2023-07-22T01:26:25;100170.13;;;24.25;69.33
61682;BME280;47577;43.610;25.010;2023-07-22T01:28:51;100163.69;;;24.16;70.16
61682;BME280;47577;43.610;25.010;2023-07-22T01:31:26;100168.97;;;24.18;70.53
61682;BME280;47577;43.610;25.010;2023-07-22T01:33:51;100177.41;;;23.95;69.77
61682;BME280;47577;43.610;25.010;2023-07-22T01:36:17;100178.25;;;23.76;70.38
61682;BME280;47577;43.610;25.010;2023-07-22T01:38:43;100190.72;;;23.98;71.62
61682;BME280;47577;43.610;25.010;2023-07-22T01:41:08;100190.16;;;24.04;69.96
61682;BME280;47577;43.610;25.010;2023-07-22T01:43:33;100194.88;;;24.02;70.32
61682;BME280;47577;43.610;25.010;2023-07-22T01:45:59;100190.00;;;23.96;71.51
61682;BME280;47577;43.610;25.010;2023-07-22T01:48:24;100195.00;;;23.91;71.20
61682;BME280;47577;43.610;25.010;2023-07-22T01:50:50;100195.59;;;23.85;72.07
61682;BME280;47577;43.610;25.010;2023-07-22T01:53:17;100200.41;;;23.81;71.29
61682;BME280;47577;43.610;25.010;2023-07-22T01:55:43;100196.69;;;23.72;70.95
61682;BME280;47577;43.610;25.010;2023-07-22T01:58:09;100193.69;;;23.66;71.59
61682;BME280;47577;43.610;25.010;2023-07-22T02:00:35;100197.78;;;23.41;72.00
61682;BME280;47577;43.610;25.010;2023-07-22T02:03:00;100196.19;;;23.28;74.14
61682;BME280;47577;43.610;25.010;2023-07-22T02:05:25;100196.91;;;23.30;73.72
61682;BME280;47577;43.610;25.010;2023-07-22T02:07:52;100190.78;;;23.38;72.92
61682;BME280;47577;43.610;25.010;2023-07-22T02:10:20;100190.88;;;23.17;73.95
61682;BME280;47577;43.610;25.010;2023-07-22T02:12:45;100182.25;;;23.02;74.20
61682;BME280;47577;43.610;25.010;2023-07-22T02:15:11;100175.31;;;23.19;73.78
61682;BME280;47577;43.610;25.010;2023-07-22T02:17:37;100178.59;;;23.23;73.78
61682;BME280;47577;43.610;25.010;2023-07-22T02:20:02;100174.50;;;23.28;73.34
61682;BME280;47577;43.610;25.010;2023-07-22T02:22:29;100182.34;;;23.22;73.72
61682;BME280;47577;43.610;25.010;2023-07-22T02:24:55;100186.56;;;23.14;74.57
61682;BME280;47577;43.610;25.010;2023-07-22T02:27:20;100194.41;;;23.08;74.48
61682;BME280;47577;43.610;25.010;2023-07-22T02:29:46;100202.53;;;23.08;73.93
61682;BME280;47577;43.610;25.010;2023-07-22T02:32:11;100193.50;;;22.97;74.57
61682;BME280;47577;43.610;25.010;2023-07-22T02:34:37;100199.19;;;22.94;74.74
61682;BME280;47577;43.610;25.010;2023-07-22T02:37:02;100200.78;;;22.97;74.46
61682;BME280;47577;43.610;25.010;2023-07-22T02:39:28;100207.63;;;23.01;74.73
61682;BME280;47577;43.610;25.010;2023-07-22T02:41:53;100208.56;;;22.90;74.70
61682;BME280;47577;43.610;25.010;2023-07-22T02:44:19;100204.19;;;22.99;73.86
61682;BME280;47577;43.610;25.010;2023-07-22T02:46:44;100210.06;;;23.04;73.76
61682;BME280;47577;43.610;25.010;2023-07-22T02:49:10;100210.34;;;23.01;74.37
61682;BME280;47577;43.610;25.010;2023-07-22T02:51:35;100197.13;;;23.08;74.43
61682;BME280;47577;43.610;25.010;2023-07-22T02:54:00;100195.38;;;23.07;75.46
61682;BME280;47577;43.610;25.010;2023-07-22T02:56:26;100228.59;;;22.99;74.30
61682;BME280;47577;43.610;25.010;2023-07-22T02:58:51;100227.50;;;22.80;76.08
61682;BME280;47577;43.610;25.010;2023-07-22T03:01:17;100230.56;;;22.87;76.09
61682;BME280;47577;43.610;25.010;2023-07-22T03:03:44;100223.88;;;23.01;74.86
61682;BME280;47577;43.610;25.010;2023-07-22T03:06:09;100228.06;;;23.05;74.60
61682;BME280;47577;43.610;25.010;2023-07-22T03:08:35;100224.97;;;23.10;74.67
61682;BME280;47577;43.610;25.010;2023-07-22T03:11:00;100214.44;;;23.16;74.28
61682;BME280;47577;43.610;25.010;2023-07-22T03:13:26;100219.78;;;23.07;75.58
61682;BME280;47577;43.610;25.010;2023-07-22T03:15:55;100210.19;;;23.03;74.86
61682;BME280;47577;43.610;25.010;2023-07-22T03:18:20;100231.34;;;22.78;76.35
61682;BME280;47577;43.610;25.010;2023-07-22T03:20:46;100225.66;;;22.81;76.22
61682;BME280;47577;43.610;25.010;2023-07-22T03:23:11;100234.69;;;22.91;75.93
61682;BME280;47577;43.610;25.010;2023-07-22T03:25:36;100233.09;;;23.10;75.60
61682;BME280;47577;43.610;25.010;2023-07-22T03:28:03;100230.44;;;23.20;75.03
61682;BME280;47577;43.610;25.010;2023-07-22T03:30:28;100216.13;;;22.87;75.98
61682;BME280;47577;43.610;25.010;2023-07-22T03:32:54;100213.38;;;23.08;75.77
61682;BME280;47577;43.610;25.010;2023-07-22T03:35:19;100217.44;;;23.23;74.73
61682;BME280;47577;43.610;25.010;2023-07-22T03:37:45;100209.00;;;23.16;75.04
61682;BME280;47577;43.610;25.010;2023-07-22T03:40:10;100217.75;;;23.30;75.34
61682;BME280;47577;43.610;25.010;2023-07-22T03:42:48;100210.63;;;23.39;75.81
61682;BME280;47577;43.610;25.010;2023-07-22T03:45:14;100208.13;;;23.16;76.29
61682;BME280;47577;43.610;25.010;2023-07-22T03:47:40;100212.19;;;23.31;76.41
61682;BME280;47577;43.610;25.010;2023-07-22T03:50:06;100222.03;;;23.42;75.02
61682;BME280;47577;43.610;25.010;2023-07-22T03:52:32;100234.63;;;23.53;74.47
61682;BME280;47577;43.610;25.010;2023-07-22T03:54:57;100236.38;;;23.64;74.63
61682;BME280;47577;43.610;25.010;2023-07-22T03:57:26;100245.53;;;23.72;73.95
61682;BME280;47577;43.610;25.010;2023-07-22T03:59:52;100242.09;;;23.70;74.25
61682;BME280;47577;43.610;25.010;2023-07-22T04:02:17;100237.16;;;23.85;74.23
61682;BME280;47577;43.610;25.010;2023-07-22T04:04:43;100237.72;;;23.99;73.52
61682;BME280;47577;43.610;25.010;2023-07-22T04:07:08;100236.03;;;24.07;72.51
61682;BME280;47577;43.610;25.010;2023-07-22T04:09:35;100234.84;;;24.20;71.91
61682;BME280;47577;43.610;25.010;2023-07-22T04:12:00;100237.69;;;24.28;71.59
61682;BME280;47577;43.610;25.010;2023-07-22T04:14:26;100228.44;;;24.21;72.26
61682;BME280;47577;43.610;25.010;2023-07-22T04:16:51;100228.00;;;24.35;72.11
61682;BME280;47577;43.610;25.010;2023-07-22T04:19:17;100228.84;;;24.36;70.62
61682;BME280;47577;43.610;25.010;2023-07-22T04:21:42;100216.97;;;24.46;70.78
61682;BME280;47577;43.610;25.010;2023-07-22T04:24:08;100223.09;;;24.49;70.16
61682;BME280;47577;43.610;25.010;2023-07-22T04:26:35;100212.38;;;24.47;70.93
61682;BME280;47577;43.610;25.010;2023-07-22T04:29:01;100215.50;;;24.52;69.95
61682;BME280;47577;43.610;25.010;2023-07-22T04:31:26;100224.38;;;24.64;69.28
61682;BME280;47577;43.610;25.010;2023-07-22T04:33:52;100214.19;;;24.76;68.62
61682;BME280;47577;43.610;25.010;2023-07-22T04:36:17;100229.34;;;24.78;69.53
61682;BME280;47577;43.610;25.010;2023-07-22T04:38:43;100225.16;;;24.84;68.36
61682;BME280;47577;43.610;25.010;2023-07-22T04:41:08;100233.84;;;24.97;68.18
61682;BME280;47577;43.610;25.010;2023-07-22T04:43:34;100215.94;;;25.05;67.62
61682;BME280;47577;43.610;25.010;2023-07-22T04:45:59;100220.31;;;25.15;67.15
61682;BME280;47577;43.610;25.010;2023-07-22T04:48:24;100222.72;;;25.28;66.86
61682;BME280;47577;43.610;25.010;2023-07-22T04:50:50;100217.69;;;25.33;66.71
61682;BME280;47577;43.610;25.010;2023-07-22T04:53:16;100220.72;;;25.30;66.05
61682;BME280;47577;43.610;25.010;2023-07-22T04:55:41;100225.13;;;25.31;66.91
61682;BME280;47577;43.610;25.010;2023-07-22T04:58:07;100232.84;;;25.36;66.46
61682;BME280;47577;43.610;25.010;2023-07-22T05:00:34;100221.91;;;25.46;64.82
61682;BME280;47577;43.610;25.010;2023-07-22T05:02:59;100220.28;;;25.53;65.39
61682;BME280;47577;43.610;25.010;2023-07-22T05:05:25;100230.66;;;25.67;64.31
61682;BME280;47577;43.610;25.010;2023-07-22T05:07:50;100228.84;;;25.58;64.51
61682;BME280;47577;43.610;25.010;2023-07-22T05:10:17;100228.47;;;25.71;64.63
61682;BME280;47577;43.610;25.010;2023-07-22T05:12:44;100231.97;;;25.81;64.60
61682;BME280;47577;43.610;25.010;2023-07-22T05:15:10;100240.88;;;26.01;62.99
61682;BME280;47577;43.610;25.010;2023-07-22T05:17:36;100228.97;;;26.02;62.98
61682;BME280;47577;43.610;25.010;2023-07-22T05:20:04;100227.00;;;26.13;62.11
61682;BME280;47577;43.610;25.010;2023-07-22T05:22:35;100224.69;;;26.18;62.12
61682;BME280;47577;43.610;25.010;2023-07-22T05:25:00;100226.91;;;26.22;62.77
61682;BME280;47577;43.610;25.010;2023-07-22T05:27:26;100228.53;;;26.33;63.26
61682;BME280;47577;43.610;25.010;2023-07-22T05:29:51;100231.19;;;26.43;61.68
61682;BME280;47577;43.610;25.010;2023-07-22T05:32:17;100228.88;;;26.56;61.91
61682;BME280;47577;43.610;25.010;2023-07-22T05:34:42;100236.97;;;26.66;61.04
61682;BME280;47577;43.610;25.010;2023-07-22T05:37:07;100231.53;;;26.66;61.13
61682;BME280;47577;43.610;25.010;2023-07-22T05:39:33;100238.06;;;26.73;60.92
61682;BME280;47577;43.610;25.010;2023-07-22T05:41:58;100241.84;;;26.80;60.69
61682;BME280;47577;43.610;25.010;2023-07-22T05:44:24;100248.88;;;26.83;60.61
61682;BME280;47577;43.610;25.010;2023-07-22T05:46:49;100244.94;;;27.12;60.96
61682;BME280;47577;43.610;25.010;2023-07-22T05:49:14;100258.44;;;27.22;60.64
61682;BME280;47577;43.610;25.010;2023-07-22T05:51:40;100257.31;;;27.32;60.60
61682;BME280;47577;43.610;25.010;2023-07-22T05:54:08;100260.81;;;27.51;59.22
61682;BME280;47577;43.610;25.010;2023-07-22T05:56:34;100267.94;;;27.44;59.36
61682;BME280;47577;43.610;25.010;2023-07-22T05:58:59;100267.72;;;27.03;60.11
61682;BME280;47577;43.610;25.010;2023-07-22T06:01:25;100269.53;;;27.20;60.73
61682;BME280;47577;43.610;25.010;2023-07-22T06:03:50;100263.47;;;27.34;59.79
61682;BME280;47577;43.610;25.010;2023-07-22T06:06:16;100266.59;;;27.48;58.72
61682;BME280;47577;43.610;25.010;2023-07-22T06:08:41;100266.13;;;27.18;59.61
61682;BME280;47577;43.610;25.010;2023-07-22T06:11:07;100263.66;;;27.33;60.09
61682;BME280;47577;43.610;25.010;2023-07-22T06:13:32;100263.56;;;27.59;59.29
61682;BME280;47577;43.610;25.010;2023-07-22T06:15:58;100278.28;;;27.83;58.48
61682;BME280;47577;43.610;25.010;2023-07-22T06:18:23;100283.81;;;27.91;57.82
61682;BME280;47577;43.610;25.010;2023-07-22T06:20:49;100281.97;;;28.00;57.91
61682;BME280;47577;43.610;25.010;2023-07-22T06:23:14;100292.06;;;28.07;56.96
61682;BME280;47577;43.610;25.010;2023-07-22T06:25:40;100300.94;;;28.26;56.23
61682;BME280;47577;43.610;25.010;2023-07-22T06:28:06;100295.81;;;28.31;55.61
61682;BME280;47577;43.610;25.010;2023-07-22T06:30:31;100289.84;;;28.27;56.83
61682;BME280;47577;43.610;25.010;2023-07-22T06:32:57;100294.47;;;28.52;56.21
61682;BME280;47577;43.610;25.010;2023-07-22T06:35:22;100281.81;;;28.59;56.27
61682;BME280;47577;43.610;25.010;2023-07-22T06:37:50;100267.81;;;28.78;55.76
61682;BME280;47577;43.610;25.010;2023-07-22T06:40:15;100264.88;;;28.88;55.67
61682;BME280;47577;43.610;25.010;2023-07-22T06:42:41;100267.78;;;28.95;54.09
61682;BME280;47577;43.610;25.010;2023-07-22T06:45:09;100269.28;;;28.97;55.35
61682;BME280;47577;43.610;25.010;2023-07-22T06:47:35;100267.72;;;29.20;55.05
61682;BME280;47577;43.610;25.010;2023-07-22T06:50:01;100277.16;;;29.00;55.19
61682;BME280;47577;43.610;25.010;2023-07-22T06:52:27;100269.44;;;29.04;52.65
61682;BME280;47577;43.610;25.010;2023-07-22T06:54:53;100272.22;;;28.88;51.12
61682;BME280;47577;43.610;25.010;2023-07-22T06:57:18;100268.97;;;28.92;50.57
61682;BME280;47577;43.610;25.010;2023-07-22T06:59:44;100263.44;;;29.09;50.57
61682;BME280;47577;43.610;25.010;2023-07-22T07:02:09;100262.91;;;29.22;49.19
61682;BME280;47577;43.610;25.010;2023-07-22T07:04:37;100264.09;;;29.27;49.37
61682;BME280;47577;43.610;25.010;2023-07-22T07:07:03;100261.28;;;29.44;48.14
61682;BME280;47577;43.610;25.010;2023-07-22T07:09:28;100268.09;;;29.48;48.66
61682;BME280;47577;43.610;25.010;2023-07-22T07:11:53;100270.03;;;29.70;47.22
61682;BME280;47577;43.610;25.010;2023-07-22T07:14:22;100267.09;;;29.80;45.96
61682;BME280;47577;43.610;25.010;2023-07-22T07:16:48;100268.94;;;29.57;46.01
61682;BME280;47577;43.610;25.010;2023-07-22T07:19:14;100259.22;;;29.85;47.34
61682;BME280;47577;43.610;25.010;2023-07-22T07:21:47;100257.25;;;30.17;46.84
61682;BME280;47577;43.610;25.010;2023-07-22T07:24:12;100270.06;;;30.02;46.22
61682;BME280;47577;43.610;25.010;2023-07-22T07:26:40;100274.72;;;29.93;46.47
61682;BME280;47577;43.610;25.010;2023-07-22T07:29:06;100258.38;;;30.08;47.37
61682;BME280;47577;43.610;25.010;2023-07-22T07:31:31;100237.75;;;30.35;45.38
61682;BME280;47577;43.610;25.010;2023-07-22T07:33:57;100230.75;;;30.33;46.06
61682;BME280;47577;43.610;25.010;2023-07-22T07:36:22;100235.47;;;30.47;45.37
61682;BME280;47577;43.610;25.010;2023-07-22T07:38:48;100221.56;;;30.49;45.25
61682;BME280;47577;43.610;25.010;2023-07-22T07:41:13;100228.28;;;30.76;45.10
61682;BME280;47577;43.610;25.010;2023-07-22T07:43:40;100219.50;;;30.80;44.24
61682;BME280;47577;43.610;25.010;2023-07-22T07:46:21;100210.75;;;31.15;44.37
61682;BME280;47577;43.610;25.010;2023-07-22T07:48:48;100198.34;;;31.41;43.31
61682;BME280;47577;43.610;25.010;2023-07-22T07:51:14;100196.66;;;31.55;42.82
61682;BME280;47577;43.610;25.010;2023-07-22T07:53:40;100198.69;;;31.67;42.18
61682;BME280;47577;43.610;25.010;2023-07-22T07:56:06;100201.66;;;31.66;40.85
61682;BME280;47577;43.610;25.010;2023-07-22T07:58:31;100200.13;;;31.63;42.00
61682;BME280;47577;43.610;25.010;2023-07-22T08:00:57;100192.03;;;31.77;40.13
61682;BME280;47577;43.610;25.010;2023-07-22T08:03:23;100195.44;;;31.57;38.90
61682;BME280;47577;43.610;25.010;2023-07-22T08:05:48;100192.69;;;31.57;38.24
61682;BME280;47577;43.610;25.010;2023-07-22T08:08:13;100199.03;;;31.43;38.45
61682;BME280;47577;43.610;25.010;2023-07-22T08:10:39;100195.50;;;31.64;37.49
61682;BME280;47577;43.610;25.010;2023-07-22T08:13:05;100199.91;;;31.80;37.72
61682;BME280;47577;43.610;25.010;2023-07-22T08:15:31;100197.94;;;31.74;37.07
61682;BME280;47577;43.610;25.010;2023-07-22T08:17:56;100206.56;;;31.92;38.63
61682;BME280;47577;43.610;25.010;2023-07-22T08:20:22;100199.50;;;32.04;36.78
61682;BME280;47577;43.610;25.010;2023-07-22T08:22:47;100197.00;;;31.51;37.10
61682;BME280;47577;43.610;25.010;2023-07-22T08:25:13;100181.75;;;31.85;38.13
61682;BME280;47577;43.610;25.010;2023-07-22T08:27:38;100200.44;;;32.12;39.17
61682;BME280;47577;43.610;25.010;2023-07-22T08:30:04;100202.84;;;32.21;38.19
61682;BME280;47577;43.610;25.010;2023-07-22T08:32:33;100195.44;;;32.00;38.71
61682;BME280;47577;43.610;25.010;2023-07-22T08:34:58;100194.59;;;32.21;38.30
61682;BME280;47577;43.610;25.010;2023-07-22T08:37:23;100201.69;;;32.37;37.84
61682;BME280;47577;43.610;25.010;2023-07-22T08:39:49;100211.97;;;32.22;37.71
61682;BME280;47577;43.610;25.010;2023-07-22T08:42:15;100211.88;;;32.37;36.33
61682;BME280;47577;43.610;25.010;2023-07-22T08:44:44;100221.84;;;32.66;36.94
61682;BME280;47577;43.610;25.010;2023-07-22T08:47:14;100213.91;;;32.85;36.09
61682;BME280;47577;43.610;25.010;2023-07-22T08:49:41;100212.66;;;32.87;35.28
61682;BME280;47577;43.610;25.010;2023-07-22T08:52:10;100207.44;;;32.64;36.33
61682;BME280;47577;43.610;25.010;2023-07-22T08:54:36;100205.03;;;32.89;36.70
61682;BME280;47577;43.610;25.010;2023-07-22T08:57:03;100215.22;;;32.89;37.01
61682;BME280;47577;43.610;25.010;2023-07-22T08:59:28;100216.59;;;33.06;38.04
61682;BME280;47577;43.610;25.010;2023-07-22T09:01:54;100211.50;;;32.75;37.08
61682;BME280;47577;43.610;25.010;2023-07-22T09:04:19;100220.91;;;32.87;37.75
61682;BME280;47577;43.610;25.010;2023-07-22T09:06:45;100214.97;;;32.84;37.76
61682;BME280;47577;43.610;25.010;2023-07-22T09:09:10;100208.81;;;33.16;37.04
61682;BME280;47577;43.610;25.010;2023-07-22T09:11:37;100208.72;;;33.03;37.05
61682;BME280;47577;43.610;25.010;2023-07-22T09:14:03;100211.63;;;33.30;36.60
61682;BME280;47577;43.610;25.010;2023-07-22T09:16:30;100227.53;;;33.34;35.09
61682;BME280;47577;43.610;25.010;2023-07-22T09:18:57;100225.00;;;33.40;35.13
61682;BME280;47577;43.610;25.010;2023-07-22T09:21:22;100220.56;;;33.39;35.44
61682;BME280;47577;43.610;25.010;2023-07-22T09:23:48;100212.34;;;33.45;34.23
61682;BME280;47577;43.610;25.010;2023-07-22T09:26:17;100214.50;;;33.15;34.94
61682;BME280;47577;43.610;25.010;2023-07-22T09:28:50;100207.63;;;33.32;35.63
61682;BME280;47577;43.610;25.010;2023-07-22T09:31:16;100210.75;;;33.84;34.86
61682;BME280;47577;43.610;25.010;2023-07-22T09:33:41;100206.66;;;33.60;34.45
61682;BME280;47577;43.610;25.010;2023-07-22T09:36:09;100203.97;;;33.80;34.60
61682;BME280;47577;43.610;25.010;2023-07-22T09:38:34;100199.53;;;33.93;34.15
61682;BME280;47577;43.610;25.010;2023-07-22T09:41:00;100205.25;;;34.04;34.63
61682;BME280;47577;43.610;25.010;2023-07-22T09:43:25;100201.88;;;33.89;33.09
61682;BME280;47577;43.610;25.010;2023-07-22T09:45:51;100192.44;;;33.50;35.14
61682;BME280;47577;43.610;25.010;2023-07-22T09:48:16;100197.41;;;33.81;35.03
61682;BME280;47577;43.610;25.010;2023-07-22T09:50:42;100188.22;;;33.67;35.40
61682;BME280;47577;43.610;25.010;2023-07-22T09:53:07;100192.72;;;33.95;35.09
61682;BME280;47577;43.610;25.010;2023-07-22T09:55:33;100197.19;;;33.89;34.61
61682;BME280;47577;43.610;25.010;2023-07-22T09:57:59;100189.38;;;34.13;34.68
61682;BME280;47577;43.610;25.010;2023-07-22T10:00:29;100184.25;;;33.97;34.83
61682;BME280;47577;43.610;25.010;2023-07-22T10:02:55;100182.78;;;34.21;34.31
61682;BME280;47577;43.610;25.010;2023-07-22T10:05:21;100184.06;;;34.65;32.27
61682;BME280;47577;43.610;25.010;2023-07-22T10:07:48;100181.94;;;34.40;33.55
61682;BME280;47577;43.610;25.010;2023-07-22T10:10:18;100192.09;;;33.93;33.35
61682;BME280;47577;43.610;25.010;2023-07-22T10:12:44;100188.94;;;34.03;34.43
61682;BME280;47577;43.610;25.010;2023-07-22T10:15:10;100183.66;;;34.15;35.10
61682;BME280;47577;43.610;25.010;2023-07-22T10:17:37;100183.00;;;34.59;33.39
61682;BME280;47577;43.610;25.010;2023-07-22T10:20:03;100190.19;;;34.81;34.02
61682;BME280;47577;43.610;25.010;2023-07-22T10:22:34;100184.31;;;34.23;33.01
61682;BME280;47577;43.610;25.010;2023-07-22T10:25:00;100175.81;;;34.32;34.22
61682;BME280;47577;43.610;25.010;2023-07-22T10:27:26;100166.00;;;34.76;33.68
61682;BME280;47577;43.610;25.010;2023-07-22T10:29:53;100169.13;;;35.00;33.22
61682;BME280;47577;43.610;25.010;2023-07-22T10:32:19;100173.59;;;35.46;33.18
61682;BME280;47577;43.610;25.010;2023-07-22T10:34:45;100177.91;;;35.74;32.40
61682;BME280;47577;43.610;25.010;2023-07-22T10:37:10;100189.22;;;35.65;32.26
61682;BME280;47577;43.610;25.010;2023-07-22T10:39:36;100178.22;;;35.91;30.93
61682;BME280;47577;43.610;25.010;2023-07-22T10:42:05;100164.41;;;36.16;30.51
61682;BME280;47577;43.610;25.010;2023-07-22T10:44:37;100172.25;;;36.26;30.54
61682;BME280;47577;43.610;25.010;2023-07-22T10:47:03;100182.47;;;36.18;30.09
61682;BME280;47577;43.610;25.010;2023-07-22T10:49:42;100186.06;;;35.94;31.18
61682;BME280;47577;43.610;25.010;2023-07-22T10:52:09;100197.19;;;35.87;33.69
61682;BME280;47577;43.610;25.010;2023-07-22T10:54:35;100206.22;;;35.69;31.54
61682;BME280;47577;43.610;25.010;2023-07-22T10:57:35;100193.88;;;36.03;30.38
61682;BME280;47577;43.610;25.010;2023-07-22T10:59:54;100184.44;;;35.86;32.52
61682;BME280;47577;43.610;25.010;2023-07-22T11:02:27;100184.75;;;36.03;32.07
61682;BME280;47577;43.610;25.010;2023-07-22T11:04:55;100179.16;;;36.10;32.08
61682;BME280;47577;43.610;25.010;2023-07-22T11:07:33;100168.53;;;36.06;32.57
61682;BME280;47577;43.610;25.010;2023-07-22T11:10:10;100177.66;;;35.82;31.40
61682;BME280;47577;43.610;25.010;2023-07-22T11:12:36;100179.22;;;35.64;30.82
61682;BME280;47577;43.610;25.010;2023-07-22T11:15:03;100172.22;;;35.23;33.07
61682;BME280;47577;43.610;25.010;2023-07-22T11:17:31;100172.88;;;35.57;32.09
61682;BME280;47577;43.610;25.010;2023-07-22T11:19:57;100158.97;;;35.77;33.24
61682;BME280;47577;43.610;25.010;2023-07-22T11:22:23;100178.56;;;35.69;31.96
61682;BME280;47577;43.610;25.010;2023-07-22T11:24:48;100162.94;;;35.88;32.51
61682;BME280;47577;43.610;25.010;2023-07-22T11:27:14;100162.31;;;36.36;32.43
61682;BME280;47577;43.610;25.010;2023-07-22T11:29:39;100161.53;;;36.04;30.85
61682;BME280;47577;43.610;25.010;2023-07-22T11:32:05;100161.75;;;36.02;31.07
61682;BME280;47577;43.610;25.010;2023-07-22T11:34:31;100162.53;;;36.41;32.87
61682;BME280;47577;43.610;25.010;2023-07-22T11:36:56;100161.50;;;36.36;30.81
61682;BME280;47577;43.610;25.010;2023-07-22T11:39:24;100154.03;;;36.36;31.03
61682;BME280;47577;43.610;25.010;2023-07-22T11:41:50;100153.78;;;36.82;30.16
61682;BME280;47577;43.610;25.010;2023-07-22T11:44:17;100155.81;;;36.31;29.95
61682;BME280;47577;43.610;25.010;2023-07-22T11:49:21;100156.84;;;36.55;30.61
61682;BME280;47577;43.610;25.010;2023-07-22T11:51:47;100152.72;;;36.14;30.10
61682;BME280;47577;43.610;25.010;2023-07-22T11:54:12;100140.47;;;36.53;30.13
61682;BME280;47577;43.610;25.010;2023-07-22T11:56:39;100153.09;;;36.86;31.50
61682;BME280;47577;43.610;25.010;2023-07-22T11:59:05;100148.91;;;36.58;29.41
61682;BME280;47577;43.610;25.010;2023-07-22T12:01:33;100152.38;;;36.03;30.74
61682;BME280;47577;43.610;25.010;2023-07-22T12:03:59;100152.72;;;36.83;29.64
61682;BME280;47577;43.610;25.010;2023-07-22T12:06:25;100144.84;;;37.17;30.48
61682;BME280;47577;43.610;25.010;2023-07-22T12:08:52;100151.16;;;36.68;29.26
61682;BME280;47577;43.610;25.010;2023-07-22T12:11:21;100148.47;;;36.80;30.42
61682;BME280;47577;43.610;25.010;2023-07-22T12:13:46;100144.50;;;36.32;31.24
61682;BME280;47577;43.610;25.010;2023-07-22T12:16:20;100137.38;;;36.62;29.23
61682;BME280;47577;43.610;25.010;2023-07-22T12:18:46;100139.84;;;37.07;29.67
61682;BME280;47577;43.610;25.010;2023-07-22T12:21:15;100140.69;;;36.52;30.92
61682;BME280;47577;43.610;25.010;2023-07-22T12:23:41;100147.09;;;36.71;30.03
61682;BME280;47577;43.610;25.010;2023-07-22T12:26:08;100136.25;;;37.06;30.21
61682;BME280;47577;43.610;25.010;2023-07-22T12:28:34;100129.56;;;37.44;28.80
61682;BME280;47577;43.610;25.010;2023-07-22T12:30:59;100134.03;;;37.45;28.96
61682;BME280;47577;43.610;25.010;2023-07-22T12:33:25;100135.13;;;37.56;29.07
61682;BME280;47577;43.610;25.010;2023-07-22T12:35:52;100136.03;;;37.38;28.76
61682;BME280;47577;43.610;25.010;2023-07-22T12:38:18;100138.72;;;37.75;28.42